sensor_id;sensor_type;location;lat;lon;timestamp;temperature;humidity
45339;DHT22;31071;51.478;5.710;2022-09-09T00:00:14;14.50;99.90
45339;DHT22;31071;51.478;5.710;2022-09-09T00:08:22;14.50;99.90
45339;DHT22;31071;51.478;5.710;2022-09-09T00:10:56;14.40;99.90
45339;DHT22;31071;51.478;5.710;2022-09-09T00:13:34;14.50;99.90
45339;DHT22;31071;51.478;5.710;2022-09-09T00:16:27;14.40;99.90
45339;DHT22;31071;51.478;5.710;2022-09-09T00:19:23;14.50;99.90
45339;DHT22;31071;51.478;5.710;2022-09-09T00:22:19;14.50;99.90
45339;DHT22;31071;51.478;5.710;2022-09-09T00:24:53;14.50;99.90
45339;DHT22;31071;51.478;5.710;2022-09-09T00:27:31;14.40;99.90
45339;DHT22;31071;51.478;5.710;2022-09-09T00:30:26;14.40;99.90
45339;DHT22;31071;51.478;5.710;2022-09-09T00:32:59;14.40;99.90
45339;DHT22;31071;51.478;5.710;2022-09-09T00:35:38;14.40;99.90
45339;DHT22;31071;51.478;5.710;2022-09-09T00:41:10;14.40;99.90
45339;DHT22;31071;51.478;5.710;2022-09-09T00:43:39;14.30;99.90
45339;DHT22;31071;51.478;5.710;2022-09-09T00:46:18;14.40;99.90
45339;DHT22;31071;51.478;5.710;2022-09-09T00:51:59;14.30;99.90
45339;DHT22;31071;51.478;5.710;2022-09-09T00:57:26;14.30;99.90
45339;DHT22;31071;51.478;5.710;2022-09-09T01:07:55;14.40;99.90
45339;DHT22;31071;51.478;5.710;2022-09-09T01:10:39;14.40;99.90
45339;DHT22;31071;51.478;5.710;2022-09-09T01:13:09;14.30;99.90
45339;DHT22;31071;51.478;5.710;2022-09-09T01:15:40;14.30;99.90
45339;DHT22;31071;51.478;5.710;2022-09-09T01:18:10;14.30;99.90
45339;DHT22;31071;51.478;5.710;2022-09-09T01:20:39;14.30;99.90
45339;DHT22;31071;51.478;5.710;2022-09-09T01:23:36;14.30;99.90
45339;DHT22;31071;51.478;5.710;2022-09-09T01:26:26;14.30;99.90
45339;DHT22;31071;51.478;5.710;2022-09-09T01:28:53;14.30;99.90
45339;DHT22;31071;51.478;5.710;2022-09-09T01:31:26;14.20;99.90
45339;DHT22;31071;51.478;5.710;2022-09-09T01:33:54;14.20;99.90
45339;DHT22;31071;51.478;5.710;2022-09-09T01:36:26;14.20;99.90
45339;DHT22;31071;51.478;5.710;2022-09-09T01:38:53;14.10;99.90
45339;DHT22;31071;51.478;5.710;2022-09-09T01:41:19;14.10;99.90
45339;DHT22;31071;51.478;5.710;2022-09-09T01:43:44;14.10;99.90
45339;DHT22;31071;51.478;5.710;2022-09-09T01:46:11;14.10;99.90
45339;DHT22;31071;51.478;5.710;2022-09-09T01:48:37;14.10;99.90
45339;DHT22;31071;51.478;5.710;2022-09-09T01:51:04;14.10;99.90
45339;DHT22;31071;51.478;5.710;2022-09-09T01:53:30;14.10;99.90
45339;DHT22;31071;51.478;5.710;2022-09-09T01:59:01;14.10;99.90
45339;DHT22;31071;51.478;5.710;2022-09-09T02:01:54;14.10;99.90
45339;DHT22;31071;51.478;5.710;2022-09-09T02:06:54;14.10;99.90
45339;DHT22;31071;51.478;5.710;2022-09-09T02:09:23;14.10;99.90
45339;DHT22;31071;51.478;5.710;2022-09-09T02:11:57;14.10;99.90
45339;DHT22;31071;51.478;5.710;2022-09-09T02:14:29;14.10;99.90
45339;DHT22;31071;51.478;5.710;2022-09-09T02:17:08;14.00;99.90
45339;DHT22;31071;51.478;5.710;2022-09-09T02:19:39;14.00;99.90
45339;DHT22;31071;51.478;5.710;2022-09-09T02:22:06;14.10;99.90
45339;DHT22;31071;51.478;5.710;2022-09-09T02:24:36;14.10;99.90
45339;DHT22;31071;51.478;5.710;2022-09-09T02:27:04;14.10;99.90
45339;DHT22;31071;51.478;5.710;2022-09-09T02:29:34;14.00;99.90
45339;DHT22;31071;51.478;5.710;2022-09-09T02:32:05;14.00;99.90
45339;DHT22;31071;51.478;5.710;2022-09-09T02:34:34;14.10;99.90
45339;DHT22;31071;51.478;5.710;2022-09-09T02:37:02;14.00;99.90
45339;DHT22;31071;51.478;5.710;2022-09-09T02:39:28;14.00;99.90
45339;DHT22;31071;51.478;5.710;2022-09-09T02:41:55;14.00;99.90
45339;DHT22;31071;51.478;5.710;2022-09-09T02:44:21;14.00;99.90
45339;DHT22;31071;51.478;5.710;2022-09-09T02:50:14;14.00;99.90
45339;DHT22;31071;51.478;5.710;2022-09-09T02:53:05;14.00;99.90
45339;DHT22;31071;51.478;5.710;2022-09-09T02:55:40;14.00;99.90
45339;DHT22;31071;51.478;5.710;2022-09-09T02:58:10;14.00;99.90
45339;DHT22;31071;51.478;5.710;2022-09-09T03:00:38;14.00;99.90
45339;DHT22;31071;51.478;5.710;2022-09-09T03:03:05;14.00;99.90
45339;DHT22;31071;51.478;5.710;2022-09-09T03:05:31;14.00;99.90
45339;DHT22;31071;51.478;5.710;2022-09-09T03:07:59;14.00;99.90
45339;DHT22;31071;51.478;5.710;2022-09-09T03:10:24;14.00;99.90
45339;DHT22;31071;51.478;5.710;2022-09-09T03:12:50;14.00;99.90
45339;DHT22;31071;51.478;5.710;2022-09-09T03:15:16;14.00;99.90
45339;DHT22;31071;51.478;5.710;2022-09-09T03:17:42;14.00;99.90
45339;DHT22;31071;51.478;5.710;2022-09-09T03:20:07;14.10;99.90
45339;DHT22;31071;51.478;5.710;2022-09-09T03:22:34;14.10;99.90
45339;DHT22;31071;51.478;5.710;2022-09-09T03:25:00;14.10;99.90
45339;DHT22;31071;51.478;5.710;2022-09-09T03:27:26;14.20;99.90
45339;DHT22;31071;51.478;5.710;2022-09-09T03:29:52;14.20;99.90
45339;DHT22;31071;51.478;5.710;2022-09-09T03:32:19;14.20;99.90
45339;DHT22;31071;51.478;5.710;2022-09-09T03:34:47;14.30;99.90
45339;DHT22;31071;51.478;5.710;2022-09-09T03:37:15;14.30;99.90
45339;DHT22;31071;51.478;5.710;2022-09-09T03:39:41;14.40;99.90
45339;DHT22;31071;51.478;5.710;2022-09-09T03:42:06;14.40;99.90
45339;DHT22;31071;51.478;5.710;2022-09-09T03:44:32;14.40;99.90
45339;DHT22;31071;51.478;5.710;2022-09-09T03:46:57;14.50;99.90
45339;DHT22;31071;51.478;5.710;2022-09-09T03:49:25;14.50;99.90
45339;DHT22;31071;51.478;5.710;2022-09-09T03:51:51;14.50;99.90
45339;DHT22;31071;51.478;5.710;2022-09-09T03:54:16;14.50;99.90
45339;DHT22;31071;51.478;5.710;2022-09-09T03:56:42;14.60;99.90
45339;DHT22;31071;51.478;5.710;2022-09-09T03:59:08;14.60;99.90
45339;DHT22;31071;51.478;5.710;2022-09-09T04:01:34;14.60;99.90
45339;DHT22;31071;51.478;5.710;2022-09-09T04:03:59;14.60;99.90
45339;DHT22;31071;51.478;5.710;2022-09-09T04:06:27;14.60;99.90
45339;DHT22;31071;51.478;5.710;2022-09-09T04:08:53;14.70;99.90
45339;DHT22;31071;51.478;5.710;2022-09-09T04:11:20;14.70;99.90
45339;DHT22;31071;51.478;5.710;2022-09-09T04:13:45;14.70;99.90
45339;DHT22;31071;51.478;5.710;2022-09-09T04:16:12;14.70;99.90
45339;DHT22;31071;51.478;5.710;2022-09-09T04:18:41;14.70;99.90
45339;DHT22;31071;51.478;5.710;2022-09-09T04:21:08;14.60;99.90
45339;DHT22;31071;51.478;5.710;2022-09-09T04:23:34;14.70;99.90
45339;DHT22;31071;51.478;5.710;2022-09-09T04:26:00;14.60;99.90
45339;DHT22;31071;51.478;5.710;2022-09-09T04:28:30;14.70;99.90
45339;DHT22;31071;51.478;5.710;2022-09-09T04:30:57;14.70;99.90
45339;DHT22;31071;51.478;5.710;2022-09-09T04:33:28;14.70;99.90
45339;DHT22;31071;51.478;5.710;2022-09-09T04:35:54;14.70;99.90
45339;DHT22;31071;51.478;5.710;2022-09-09T04:38:31;14.70;99.90
45339;DHT22;31071;51.478;5.710;2022-09-09T04:40:56;14.70;99.90
45339;DHT22;31071;51.478;5.710;2022-09-09T04:43:22;14.80;99.90
45339;DHT22;31071;51.478;5.710;2022-09-09T04:45:49;14.80;99.90
45339;DHT22;31071;51.478;5.710;2022-09-09T04:48:15;14.80;99.90
45339;DHT22;31071;51.478;5.710;2022-09-09T04:50:40;14.80;99.90
45339;DHT22;31071;51.478;5.710;2022-09-09T04:53:06;14.80;99.90
45339;DHT22;31071;51.478;5.710;2022-09-09T04:55:32;14.90;99.90
45339;DHT22;31071;51.478;5.710;2022-09-09T04:58:06;14.80;99.90
45339;DHT22;31071;51.478;5.710;2022-09-09T05:00:33;14.90;99.90
45339;DHT22;31071;51.478;5.710;2022-09-09T05:03:04;14.80;99.90
45339;DHT22;31071;51.478;5.710;2022-09-09T05:05:31;14.80;99.90
45339;DHT22;31071;51.478;5.710;2022-09-09T05:08:07;14.70;99.90
45339;DHT22;31071;51.478;5.710;2022-09-09T05:10:35;14.70;99.90
45339;DHT22;31071;51.478;5.710;2022-09-09T05:13:01;14.70;99.90
45339;DHT22;31071;51.478;5.710;2022-09-09T05:15:27;14.70;99.90
45339;DHT22;31071;51.478;5.710;2022-09-09T05:18:05;14.70;99.90
45339;DHT22;31071;51.478;5.710;2022-09-09T05:20:31;14.70;99.90
45339;DHT22;31071;51.478;5.710;2022-09-09T05:22:57;14.70;99.90
45339;DHT22;31071;51.478;5.710;2022-09-09T05:25:23;14.70;99.90
45339;DHT22;31071;51.478;5.710;2022-09-09T05:27:51;14.70;99.90
45339;DHT22;31071;51.478;5.710;2022-09-09T05:30:18;14.70;99.90
45339;DHT22;31071;51.478;5.710;2022-09-09T05:32:44;14.70;99.90
45339;DHT22;31071;51.478;5.710;2022-09-09T05:35:10;14.70;99.90
45339;DHT22;31071;51.478;5.710;2022-09-09T05:37:43;14.70;99.90
45339;DHT22;31071;51.478;5.710;2022-09-09T05:40:11;14.70;99.90
45339;DHT22;31071;51.478;5.710;2022-09-09T05:42:37;14.70;99.90
45339;DHT22;31071;51.478;5.710;2022-09-09T05:45:04;14.70;99.90
45339;DHT22;31071;51.478;5.710;2022-09-09T05:47:30;14.70;99.90
45339;DHT22;31071;51.478;5.710;2022-09-09T05:49:55;14.70;99.90
45339;DHT22;31071;51.478;5.710;2022-09-09T05:52:21;14.70;99.90
45339;DHT22;31071;51.478;5.710;2022-09-09T05:54:47;14.80;99.90
45339;DHT22;31071;51.478;5.710;2022-09-09T05:57:13;14.80;99.90
45339;DHT22;31071;51.478;5.710;2022-09-09T05:59:38;14.80;99.90
45339;DHT22;31071;51.478;5.710;2022-09-09T06:02:04;14.80;99.90
45339;DHT22;31071;51.478;5.710;2022-09-09T06:04:29;14.90;99.90
45339;DHT22;31071;51.478;5.710;2022-09-09T06:06:55;14.90;99.90
45339;DHT22;31071;51.478;5.710;2022-09-09T06:09:21;15.00;99.90
45339;DHT22;31071;51.478;5.710;2022-09-09T06:11:46;15.00;99.90
45339;DHT22;31071;51.478;5.710;2022-09-09T06:14:12;15.00;99.90
45339;DHT22;31071;51.478;5.710;2022-09-09T06:16:38;15.00;99.90
45339;DHT22;31071;51.478;5.710;2022-09-09T06:19:03;15.00;99.90
45339;DHT22;31071;51.478;5.710;2022-09-09T06:21:31;15.10;99.90
45339;DHT22;31071;51.478;5.710;2022-09-09T06:23:59;15.20;99.90
45339;DHT22;31071;51.478;5.710;2022-09-09T06:26:27;15.20;99.90
45339;DHT22;31071;51.478;5.710;2022-09-09T06:28:55;15.30;99.90
45339;DHT22;31071;51.478;5.710;2022-09-09T06:31:22;15.30;99.90
45339;DHT22;31071;51.478;5.710;2022-09-09T06:33:50;15.30;99.90
45339;DHT22;31071;51.478;5.710;2022-09-09T06:36:20;15.30;99.90
45339;DHT22;31071;51.478;5.710;2022-09-09T06:38:46;15.40;99.90
45339;DHT22;31071;51.478;5.710;2022-09-09T06:41:14;15.40;99.90
45339;DHT22;31071;51.478;5.710;2022-09-09T06:43:40;15.40;99.90
45339;DHT22;31071;51.478;5.710;2022-09-09T06:46:11;15.40;99.90
45339;DHT22;31071;51.478;5.710;2022-09-09T06:48:38;15.40;99.90
45339;DHT22;31071;51.478;5.710;2022-09-09T06:51:14;15.50;99.90
45339;DHT22;31071;51.478;5.710;2022-09-09T06:53:42;15.50;99.90
45339;DHT22;31071;51.478;5.710;2022-09-09T06:58:40;15.70;99.90
45339;DHT22;31071;51.478;5.710;2022-09-09T07:01:10;15.80;99.90
45339;DHT22;31071;51.478;5.710;2022-09-09T07:03:38;15.90;99.90
45339;DHT22;31071;51.478;5.710;2022-09-09T07:06:04;15.80;99.90
45339;DHT22;31071;51.478;5.710;2022-09-09T07:08:30;15.80;99.90
45339;DHT22;31071;51.478;5.710;2022-09-09T07:11:03;15.80;99.90
45339;DHT22;31071;51.478;5.710;2022-09-09T07:13:30;15.80;99.90
45339;DHT22;31071;51.478;5.710;2022-09-09T07:16:04;15.90;99.90
45339;DHT22;31071;51.478;5.710;2022-09-09T07:18:29;16.10;99.90
45339;DHT22;31071;51.478;5.710;2022-09-09T07:20:56;16.20;99.90
45339;DHT22;31071;51.478;5.710;2022-09-09T07:23:22;16.30;99.90
45339;DHT22;31071;51.478;5.710;2022-09-09T07:25:47;16.40;99.90
45339;DHT22;31071;51.478;5.710;2022-09-09T07:28:14;16.50;99.90
45339;DHT22;31071;51.478;5.710;2022-09-09T07:30:40;16.60;99.90
45339;DHT22;31071;51.478;5.710;2022-09-09T07:33:06;16.60;99.90
45339;DHT22;31071;51.478;5.710;2022-09-09T07:35:32;16.70;99.90
45339;DHT22;31071;51.478;5.710;2022-09-09T07:38:01;16.80;99.90
45339;DHT22;31071;51.478;5.710;2022-09-09T07:40:26;16.90;99.90
45339;DHT22;31071;51.478;5.710;2022-09-09T07:42:52;16.90;99.90
45339;DHT22;31071;51.478;5.710;2022-09-09T07:45:19;17.00;99.90
45339;DHT22;31071;51.478;5.710;2022-09-09T07:47:44;17.00;99.90
45339;DHT22;31071;51.478;5.710;2022-09-09T07:50:10;17.10;99.90
45339;DHT22;31071;51.478;5.710;2022-09-09T07:52:36;17.20;99.90
45339;DHT22;31071;51.478;5.710;2022-09-09T07:55:02;17.20;99.90
45339;DHT22;31071;51.478;5.710;2022-09-09T07:57:29;17.20;99.90
45339;DHT22;31071;51.478;5.710;2022-09-09T07:59:56;17.10;99.90
45339;DHT22;31071;51.478;5.710;2022-09-09T08:02:23;17.00;99.90
45339;DHT22;31071;51.478;5.710;2022-09-09T08:04:49;17.10;99.90
45339;DHT22;31071;51.478;5.710;2022-09-09T08:07:14;17.10;99.90
45339;DHT22;31071;51.478;5.710;2022-09-09T08:09:41;17.10;99.90
45339;DHT22;31071;51.478;5.710;2022-09-09T08:12:06;17.20;99.90
45339;DHT22;31071;51.478;5.710;2022-09-09T08:14:34;17.20;99.90
45339;DHT22;31071;51.478;5.710;2022-09-09T08:17:01;17.30;99.90
45339;DHT22;31071;51.478;5.710;2022-09-09T08:19:26;17.40;99.90
45339;DHT22;31071;51.478;5.710;2022-09-09T08:21:54;17.50;99.90
45339;DHT22;31071;51.478;5.710;2022-09-09T08:24:20;17.60;99.90
45339;DHT22;31071;51.478;5.710;2022-09-09T08:26:47;17.70;99.90
45339;DHT22;31071;51.478;5.710;2022-09-09T08:29:15;17.60;99.90
45339;DHT22;31071;51.478;5.710;2022-09-09T08:31:47;17.60;99.90
45339;DHT22;31071;51.478;5.710;2022-09-09T08:34:13;17.50;99.90
45339;DHT22;31071;51.478;5.710;2022-09-09T08:36:42;17.60;99.90
45339;DHT22;31071;51.478;5.710;2022-09-09T08:39:09;17.50;99.90
45339;DHT22;31071;51.478;5.710;2022-09-09T08:53:00;17.60;99.90
45339;DHT22;31071;51.478;5.710;2022-09-09T08:55:48;17.70;99.90
45339;DHT22;31071;51.478;5.710;2022-09-09T08:58:23;17.80;99.90
45339;DHT22;31071;51.478;5.710;2022-09-09T09:01:12;17.90;99.90
45339;DHT22;31071;51.478;5.710;2022-09-09T09:04:00;17.90;99.90
45339;DHT22;31071;51.478;5.710;2022-09-09T09:11:53;17.80;99.90
45339;DHT22;31071;51.478;5.710;2022-09-09T09:14:24;17.80;99.90
45339;DHT22;31071;51.478;5.710;2022-09-09T09:17:12;17.90;99.90
45339;DHT22;31071;51.478;5.710;2022-09-09T09:19:40;17.80;99.90
45339;DHT22;31071;51.478;5.710;2022-09-09T09:22:37;17.70;99.90
45339;DHT22;31071;51.478;5.710;2022-09-09T09:30:22;17.60;99.90
45339;DHT22;31071;51.478;5.710;2022-09-09T09:33:06;17.60;99.90
45339;DHT22;31071;51.478;5.710;2022-09-09T09:35:34;17.60;99.90
45339;DHT22;31071;51.478;5.710;2022-09-09T09:38:05;17.80;99.90
45339;DHT22;31071;51.478;5.710;2022-09-09T09:40:37;17.80;99.90
45339;DHT22;31071;51.478;5.710;2022-09-09T09:43:28;17.90;99.90
45339;DHT22;31071;51.478;5.710;2022-09-09T09:45:54;17.90;99.90
45339;DHT22;31071;51.478;5.710;2022-09-09T09:48:20;17.80;99.90
45339;DHT22;31071;51.478;5.710;2022-09-09T09:50:49;17.70;99.90
45339;DHT22;31071;51.478;5.710;2022-09-09T09:53:33;17.70;99.90
45339;DHT22;31071;51.478;5.710;2022-09-09T09:56:03;17.70;99.90
45339;DHT22;31071;51.478;5.710;2022-09-09T09:58:46;17.70;99.90
45339;DHT22;31071;51.478;5.710;2022-09-09T10:06:32;17.80;99.90
45339;DHT22;31071;51.478;5.710;2022-09-09T10:08:58;17.90;99.90
45339;DHT22;31071;51.478;5.710;2022-09-09T10:11:27;18.00;99.90
45339;DHT22;31071;51.478;5.710;2022-09-09T10:14:08;18.20;99.90
45339;DHT22;31071;51.478;5.710;2022-09-09T10:20:14;18.40;99.90
45339;DHT22;31071;51.478;5.710;2022-09-09T10:23:02;18.30;99.90
45339;DHT22;31071;51.478;5.710;2022-09-09T10:33:44;18.00;99.90
45339;DHT22;31071;51.478;5.710;2022-09-09T10:36:17;18.00;99.90
45339;DHT22;31071;51.478;5.710;2022-09-09T10:39:04;18.00;99.90
45339;DHT22;31071;51.478;5.710;2022-09-09T10:41:57;18.10;99.90
45339;DHT22;31071;51.478;5.710;2022-09-09T10:48:02;17.60;99.90
45339;DHT22;31071;51.478;5.710;2022-09-09T10:50:40;17.10;99.90
45339;DHT22;31071;51.478;5.710;2022-09-09T10:53:43;16.70;99.90
45339;DHT22;31071;51.478;5.710;2022-09-09T10:56:11;16.60;99.90
45339;DHT22;31071;51.478;5.710;2022-09-09T10:59:07;16.60;99.90
45339;DHT22;31071;51.478;5.710;2022-09-09T11:01:45;16.50;99.90
45339;DHT22;31071;51.478;5.710;2022-09-09T11:04:19;16.40;99.90
45339;DHT22;31071;51.478;5.710;2022-09-09T11:06:50;16.30;99.90
45339;DHT22;31071;51.478;5.710;2022-09-09T11:09:21;16.30;99.90
45339;DHT22;31071;51.478;5.710;2022-09-09T11:11:55;16.20;99.90
45339;DHT22;31071;51.478;5.710;2022-09-09T11:14:36;16.10;99.90
45339;DHT22;31071;51.478;5.710;2022-09-09T11:17:29;16.00;99.90
45339;DHT22;31071;51.478;5.710;2022-09-09T11:19:56;15.90;99.90
45339;DHT22;31071;51.478;5.710;2022-09-09T11:27:54;15.80;99.90
45339;DHT22;31071;51.478;5.710;2022-09-09T11:36:38;15.80;99.90
45339;DHT22;31071;51.478;5.710;2022-09-09T11:41:38;16.90;99.90
45339;DHT22;31071;51.478;5.710;2022-09-09T11:44:12;17.10;99.90
45339;DHT22;31071;51.478;5.710;2022-09-09T11:46:40;17.60;99.90
45339;DHT22;31071;51.478;5.710;2022-09-09T11:49:26;17.50;99.90
45339;DHT22;31071;51.478;5.710;2022-09-09T11:51:53;17.30;99.90
45339;DHT22;31071;51.478;5.710;2022-09-09T11:54:29;17.50;99.90
45339;DHT22;31071;51.478;5.710;2022-09-09T11:56:57;17.50;99.90
45339;DHT22;31071;51.478;5.710;2022-09-09T11:59:32;17.50;99.90
45339;DHT22;31071;51.478;5.710;2022-09-09T12:02:00;17.60;99.90
45339;DHT22;31071;51.478;5.710;2022-09-09T12:04:37;17.50;99.90
45339;DHT22;31071;51.478;5.710;2022-09-09T12:14:44;17.20;99.90
45339;DHT22;31071;51.478;5.710;2022-09-09T12:17:21;17.20;99.90
45339;DHT22;31071;51.478;5.710;2022-09-09T12:19:48;17.20;99.90
45339;DHT22;31071;51.478;5.710;2022-09-09T12:26:27;17.20;99.90
45339;DHT22;31071;51.478;5.710;2022-09-09T12:31:18;17.30;99.90
45339;DHT22;31071;51.478;5.710;2022-09-09T12:33:47;17.50;99.90
45339;DHT22;31071;51.478;5.710;2022-09-09T12:38:44;17.90;99.90
45339;DHT22;31071;51.478;5.710;2022-09-09T12:41:27;18.10;99.90
45339;DHT22;31071;51.478;5.710;2022-09-09T12:44:08;18.50;99.90
45339;DHT22;31071;51.478;5.710;2022-09-09T12:46:45;19.00;99.90
45339;DHT22;31071;51.478;5.710;2022-09-09T12:49:34;19.30;99.90
45339;DHT22;31071;51.478;5.710;2022-09-09T12:52:20;19.10;99.90
45339;DHT22;31071;51.478;5.710;2022-09-09T12:54:48;19.30;99.90
45339;DHT22;31071;51.478;5.710;2022-09-09T12:57:16;19.50;99.90
45339;DHT22;31071;51.478;5.710;2022-09-09T12:59:43;19.80;99.90
45339;DHT22;31071;51.478;5.710;2022-09-09T13:04:44;19.00;99.90
45339;DHT22;31071;51.478;5.710;2022-09-09T13:07:12;18.70;99.90
45339;DHT22;31071;51.478;5.710;2022-09-09T13:09:39;18.50;99.90
45339;DHT22;31071;51.478;5.710;2022-09-09T13:12:06;18.50;99.90
45339;DHT22;31071;51.478;5.710;2022-09-09T13:14:35;18.50;99.90
45339;DHT22;31071;51.478;5.710;2022-09-09T13:17:05;18.50;99.90
45339;DHT22;31071;51.478;5.710;2022-09-09T13:19:37;18.60;99.90
45339;DHT22;31071;51.478;5.710;2022-09-09T13:22:35;18.60;99.90
45339;DHT22;31071;51.478;5.710;2022-09-09T13:25:06;18.40;99.90
45339;DHT22;31071;51.478;5.710;2022-09-09T13:27:57;18.40;99.90
45339;DHT22;31071;51.478;5.710;2022-09-09T13:30:34;18.30;99.90
45339;DHT22;31071;51.478;5.710;2022-09-09T13:35:57;19.00;99.90
45339;DHT22;31071;51.478;5.710;2022-09-09T13:38:26;19.80;99.90
45339;DHT22;31071;51.478;5.710;2022-09-09T13:41:00;20.20;99.90
45339;DHT22;31071;51.478;5.710;2022-09-09T13:43:44;20.60;99.90
45339;DHT22;31071;51.478;5.710;2022-09-09T13:46:38;21.00;99.90
45339;DHT22;31071;51.478;5.710;2022-09-09T13:54:04;20.20;99.90
45339;DHT22;31071;51.478;5.710;2022-09-09T13:56:30;19.80;99.90
45339;DHT22;31071;51.478;5.710;2022-09-09T13:58:57;19.60;99.90
45339;DHT22;31071;51.478;5.710;2022-09-09T14:01:23;19.50;99.90
45339;DHT22;31071;51.478;5.710;2022-09-09T14:03:49;19.60;99.90
45339;DHT22;31071;51.478;5.710;2022-09-09T14:06:16;20.20;99.90
45339;DHT22;31071;51.478;5.710;2022-09-09T14:08:42;21.00;99.90
45339;DHT22;31071;51.478;5.710;2022-09-09T14:11:12;20.70;99.90
45339;DHT22;31071;51.478;5.710;2022-09-09T14:13:37;20.20;99.90
45339;DHT22;31071;51.478;5.710;2022-09-09T14:16:03;19.80;99.90
45339;DHT22;31071;51.478;5.710;2022-09-09T14:18:29;21.00;99.90
45339;DHT22;31071;51.478;5.710;2022-09-09T14:20:54;21.60;99.90
45339;DHT22;31071;51.478;5.710;2022-09-09T14:23:20;21.80;99.90
45339;DHT22;31071;51.478;5.710;2022-09-09T14:25:47;21.70;99.90
45339;DHT22;31071;51.478;5.710;2022-09-09T14:28:14;21.30;99.90
45339;DHT22;31071;51.478;5.710;2022-09-09T14:30:41;21.10;99.90
45339;DHT22;31071;51.478;5.710;2022-09-09T14:33:09;20.90;99.90
45339;DHT22;31071;51.478;5.710;2022-09-09T14:35:35;20.50;99.90
45339;DHT22;31071;51.478;5.710;2022-09-09T14:38:01;20.00;99.90
45339;DHT22;31071;51.478;5.710;2022-09-09T14:40:27;20.00;99.90
45339;DHT22;31071;51.478;5.710;2022-09-09T14:42:53;19.80;99.90
45339;DHT22;31071;51.478;5.710;2022-09-09T14:45:19;19.70;99.90
45339;DHT22;31071;51.478;5.710;2022-09-09T14:47:46;19.80;99.90
45339;DHT22;31071;51.478;5.710;2022-09-09T14:50:12;20.30;99.90
45339;DHT22;31071;51.478;5.710;2022-09-09T14:52:38;20.80;99.90
45339;DHT22;31071;51.478;5.710;2022-09-09T14:55:04;20.90;99.90
45339;DHT22;31071;51.478;5.710;2022-09-09T14:57:32;21.00;99.90
45339;DHT22;31071;51.478;5.710;2022-09-09T14:59:57;20.80;99.90
45339;DHT22;31071;51.478;5.710;2022-09-09T15:02:23;20.90;99.90
45339;DHT22;31071;51.478;5.710;2022-09-09T15:04:48;20.90;99.90
45339;DHT22;31071;51.478;5.710;2022-09-09T15:07:16;21.00;99.90
45339;DHT22;31071;51.478;5.710;2022-09-09T15:09:42;21.10;99.90
45339;DHT22;31071;51.478;5.710;2022-09-09T15:12:08;21.10;99.90
45339;DHT22;31071;51.478;5.710;2022-09-09T15:14:33;20.90;99.90
45339;DHT22;31071;51.478;5.710;2022-09-09T15:17:00;20.80;99.90
45339;DHT22;31071;51.478;5.710;2022-09-09T15:19:26;20.50;99.90
45339;DHT22;31071;51.478;5.710;2022-09-09T15:21:52;20.30;99.90
45339;DHT22;31071;51.478;5.710;2022-09-09T15:24:17;20.10;99.90
45339;DHT22;31071;51.478;5.710;2022-09-09T15:26:43;20.10;99.90
45339;DHT22;31071;51.478;5.710;2022-09-09T15:29:08;20.30;99.90
45339;DHT22;31071;51.478;5.710;2022-09-09T15:31:34;20.20;99.90
45339;DHT22;31071;51.478;5.710;2022-09-09T15:34:02;20.20;99.90
45339;DHT22;31071;51.478;5.710;2022-09-09T15:36:32;20.00;99.90
45339;DHT22;31071;51.478;5.710;2022-09-09T15:38:59;19.90;99.90
45339;DHT22;31071;51.478;5.710;2022-09-09T15:41:25;19.90;99.90
45339;DHT22;31071;51.478;5.710;2022-09-09T15:43:53;19.90;99.90
45339;DHT22;31071;51.478;5.710;2022-09-09T15:46:37;19.80;99.90
45339;DHT22;31071;51.478;5.710;2022-09-09T15:49:17;19.70;99.90
45339;DHT22;31071;51.478;5.710;2022-09-09T15:51:45;19.80;99.90
45339;DHT22;31071;51.478;5.710;2022-09-09T15:54:16;20.10;99.90
45339;DHT22;31071;51.478;5.710;2022-09-09T15:56:44;20.20;99.90
45339;DHT22;31071;51.478;5.710;2022-09-09T15:59:10;20.10;99.90
45339;DHT22;31071;51.478;5.710;2022-09-09T16:01:36;19.80;99.90
45339;DHT22;31071;51.478;5.710;2022-09-09T16:04:02;19.70;99.90
45339;DHT22;31071;51.478;5.710;2022-09-09T16:06:28;19.50;99.90
45339;DHT22;31071;51.478;5.710;2022-09-09T16:08:55;19.40;99.90
45339;DHT22;31071;51.478;5.710;2022-09-09T16:11:32;19.40;99.90
45339;DHT22;31071;51.478;5.710;2022-09-09T16:13:59;19.40;99.90
45339;DHT22;31071;51.478;5.710;2022-09-09T16:16:27;19.40;99.90
45339;DHT22;31071;51.478;5.710;2022-09-09T16:18:58;19.30;99.90
45339;DHT22;31071;51.478;5.710;2022-09-09T16:21:29;19.20;99.90
45339;DHT22;31071;51.478;5.710;2022-09-09T16:23:57;19.30;99.90
45339;DHT22;31071;51.478;5.710;2022-09-09T16:26:24;19.20;99.90
45339;DHT22;31071;51.478;5.710;2022-09-09T16:28:50;19.20;99.90
45339;DHT22;31071;51.478;5.710;2022-09-09T16:31:18;19.10;99.90
45339;DHT22;31071;51.478;5.710;2022-09-09T16:33:45;19.00;99.90
45339;DHT22;31071;51.478;5.710;2022-09-09T16:36:13;18.70;99.90
45339;DHT22;31071;51.478;5.710;2022-09-09T16:38:39;18.40;99.90
45339;DHT22;31071;51.478;5.710;2022-09-09T16:41:06;18.20;99.90
45339;DHT22;31071;51.478;5.710;2022-09-09T16:43:33;18.00;99.90
45339;DHT22;31071;51.478;5.710;2022-09-09T16:45:59;17.90;99.90
45339;DHT22;31071;51.478;5.710;2022-09-09T16:48:35;17.80;99.90
45339;DHT22;31071;51.478;5.710;2022-09-09T16:51:08;17.80;99.90
45339;DHT22;31071;51.478;5.710;2022-09-09T16:53:35;17.70;99.90
45339;DHT22;31071;51.478;5.710;2022-09-09T16:56:08;17.50;99.90
45339;DHT22;31071;51.478;5.710;2022-09-09T16:58:34;17.50;99.90
45339;DHT22;31071;51.478;5.710;2022-09-09T17:01:01;17.30;99.90
45339;DHT22;31071;51.478;5.710;2022-09-09T17:03:28;17.20;99.90
45339;DHT22;31071;51.478;5.710;2022-09-09T17:05:54;17.10;99.90
45339;DHT22;31071;51.478;5.710;2022-09-09T17:08:21;16.00;99.90
45339;DHT22;31071;51.478;5.710;2022-09-09T17:10:46;15.40;99.90
45339;DHT22;31071;51.478;5.710;2022-09-09T17:13:13;15.10;99.90
45339;DHT22;31071;51.478;5.710;2022-09-09T17:15:42;15.00;99.90
45339;DHT22;31071;51.478;5.710;2022-09-09T17:18:09;15.10;99.90
45339;DHT22;31071;51.478;5.710;2022-09-09T17:20:37;15.10;99.90
45339;DHT22;31071;51.478;5.710;2022-09-09T17:23:02;15.30;99.90
45339;DHT22;31071;51.478;5.710;2022-09-09T17:25:28;15.30;99.90
45339;DHT22;31071;51.478;5.710;2022-09-09T17:28:00;15.30;99.90
45339;DHT22;31071;51.478;5.710;2022-09-09T17:30:35;15.30;99.90
45339;DHT22;31071;51.478;5.710;2022-09-09T17:33:02;15.20;99.90
45339;DHT22;31071;51.478;5.710;2022-09-09T17:35:29;15.20;99.90
45339;DHT22;31071;51.478;5.710;2022-09-09T17:37:55;15.20;99.90
45339;DHT22;31071;51.478;5.710;2022-09-09T17:40:21;15.20;99.90
45339;DHT22;31071;51.478;5.710;2022-09-09T17:42:47;15.20;99.90
45339;DHT22;31071;51.478;5.710;2022-09-09T17:45:13;15.30;99.90